world map with SCGE marked

SCGE - Airport

This information may not be accurate or current and is not valid for navigation or flight planning. No warranty of fitness for any purpose is made or implied.

flag of Bío Bíoflag of Chile

Donate via PayPal

Additional information is available on the NEW Great Circle Mapper

Location
City:  Los Ángeles, Bío Bío, Chile
Name:María Dolores Airport
ICAO / IATA:SCGE / LSQ

Details
Type:Airport (Aerodrome, Airfield)
Use:Public/Civil
Latitude:37°24'07"S (-37.401943)
Longitude:72°25'32"W (-72.425555)
Elevation:374 ft (114 m)
Runways:1
Longest:5577 × 98 ft (1700 × 30 m)

Time
Timezone:UTC+30:08 (DST+33:08)
Local Time:

Weather
METAR:SCGE  041400Z 01005KT 8000 NSC 20/16 Q1011

Related Locations
Nearby:
Farthest:INC: 12345 mi / 19867 km
Yinchuan [Hedong], 64, CN

Find:

   beyond  
but within

Other Information
Maps:
Sources:

  


 


Great Circle Mapper   Great Circle Mapper
Great Circle Mapper FAQ   Great Circle Mapper FAQ
  Karl's Home Page
KLS²   KLS² Home
   GC on Facebook
Airlines of the World   Airlines of the World
Donate via PayPal


Copyright © 2004-2019, Karl L. Swartz. All rights reserved.
All trademarks mentioned herein belong to their respective owners.

Please see credits for attribution and copyright information.

Karl Swartz <karl@kls2.com>
  Powered by FreeBSD
Valid HTML 4.01!
Labeled with ICRA
hCard Microformat
Geo Microformat